createdAt,value
2018-01-22T00:00:58.822Z,98611.97
2018-01-22T00:03:27.502Z,98616.70
2018-01-22T00:05:56.219Z,98619.56
2018-01-22T00:08:26.229Z,98614.41
2018-01-22T00:10:55.507Z,98608.77
2018-01-22T00:13:24.058Z,98609.27
2018-01-22T00:15:52.716Z,98606.96
2018-01-22T00:18:22.066Z,98601.16
2018-01-22T00:20:50.859Z,98600.50
2018-01-22T00:23:19.339Z,98610.00
2018-01-22T00:25:48.575Z,98605.17
2018-01-22T00:28:17.275Z,98609.92
2018-01-22T00:30:46.534Z,98610.59
2018-01-22T00:33:15.015Z,98609.52
2018-01-22T00:35:43.911Z,98608.73
2018-01-22T00:38:13.903Z,98613.59
2018-01-22T00:40:42.539Z,98610.13
2018-01-22T00:43:11.995Z,98612.09
2018-01-22T00:45:40.473Z,98607.89
2018-01-22T00:48:09.031Z,98605.13
2018-01-22T00:50:38.519Z,98607.84
2018-01-22T00:53:07.771Z,98605.81
2018-01-22T00:55:36.455Z,98603.45
2018-01-22T00:58:05.131Z,98603.86
2018-01-22T01:00:33.610Z,98601.69
2018-01-22T01:03:02.248Z,98602.62
2018-01-22T01:05:31.844Z,98612.45
2018-01-22T01:08:00.331Z,98617.09
2018-01-22T01:10:28.806Z,98619.56
2018-01-22T01:12:57.522Z,98625.98
2018-01-22T01:15:26.248Z,98622.90
2018-01-22T01:17:54.728Z,98624.02
2018-01-22T01:20:23.620Z,98623.44
2018-01-22T01:22:52.100Z,98630.26
2018-01-22T01:25:20.732Z,98622.31
2018-01-22T01:27:50.202Z,98619.63
2018-01-22T01:30:18.763Z,98625.54
2018-01-22T01:32:47.243Z,98622.75
2018-01-22T01:35:15.770Z,98619.77
2018-01-22T01:37:44.249Z,98614.73
2018-01-22T01:40:13.009Z,98620.06
2018-01-22T01:42:41.891Z,98619.67
2018-01-22T01:45:10.370Z,98619.52
2018-01-22T01:47:38.904Z,98625.22
2018-01-22T01:50:07.611Z,98615.94
2018-01-22T01:52:36.094Z,98615.39
2018-01-22T01:55:04.772Z,98618.27
2018-01-22T01:57:33.535Z,98615.27
2018-01-22T02:00:02.783Z,98627.50
2018-01-22T02:02:31.424Z,98628.13
2018-01-22T02:05:00.854Z,98623.18
2018-01-22T02:07:29.336Z,98630.73
2018-01-22T02:09:57.822Z,98623.97
2018-01-22T02:12:26.638Z,98621.63
2018-01-22T02:14:55.119Z,98615.75
2018-01-22T02:17:23.812Z,98612.70
2018-01-22T02:19:52.397Z,98611.59
2018-01-22T02:22:20.899Z,98615.06
2018-01-22T02:24:49.371Z,98621.19
2018-01-22T02:27:17.927Z,98623.55
2018-01-22T02:29:46.398Z,98615.70
2018-01-22T02:32:15.006Z,98621.52
2018-01-22T02:34:43.626Z,98618.73
2018-01-22T02:37:13.070Z,98624.53
2018-01-22T02:39:41.547Z,98617.94
2018-01-22T02:42:10.289Z,98621.02
2018-01-22T02:44:38.774Z,98625.30
2018-01-22T02:47:08.022Z,98617.54
2018-01-22T02:49:36.787Z,98628.86
2018-01-22T02:52:05.263Z,98627.91
2018-01-22T02:54:33.943Z,98635.25
2018-01-22T02:57:02.499Z,98635.42
2018-01-22T02:59:32.589Z,98645.30
2018-01-22T03:02:01.171Z,98637.58
2018-01-22T03:04:29.842Z,98652.97
2018-01-22T03:06:58.452Z,98653.90
2018-01-22T03:09:26.930Z,98654.22
2018-01-22T03:11:55.842Z,98659.92
2018-01-22T03:14:24.382Z,98654.27
2018-01-22T03:16:52.882Z,98649.00
2018-01-22T03:19:21.406Z,98646.55
2018-01-22T03:21:50.715Z,98650.27
2018-01-22T03:24:19.958Z,98650.52
2018-01-22T03:26:48.487Z,98652.27
2018-01-22T03:29:17.728Z,98656.96
2018-01-22T03:31:46.199Z,98661.34
2018-01-22T03:34:15.784Z,98660.52
2018-01-22T03:36:45.085Z,98659.87
2018-01-22T03:39:14.331Z,98668.91
2018-01-22T03:41:43.211Z,98665.59
2018-01-22T03:44:11.752Z,98674.23
2018-01-22T03:46:40.992Z,98682.74
2018-01-22T03:49:09.872Z,98682.52
2018-01-22T03:51:38.428Z,98674.95
2018-01-22T03:54:07.667Z,98693.92
2018-01-22T03:56:36.407Z,98683.41
2018-01-22T03:59:05.654Z,98687.95
2018-01-22T04:01:34.139Z,98683.92
2018-01-22T04:04:02.820Z,98686.81
2018-01-22T04:06:31.303Z,98696.08
2018-01-22T04:08:59.783Z,98701.79
2018-01-22T04:11:28.578Z,98704.56
2018-01-22T04:13:57.119Z,98715.42
2018-01-22T04:16:25.660Z,98705.27
2018-01-22T04:18:54.283Z,98715.73
2018-01-22T04:21:23.592Z,98723.41
2018-01-22T04:23:52.077Z,98720.31
2018-01-22T04:26:20.710Z,98714.77
2018-01-22T04:28:49.186Z,98731.47
2018-01-22T04:31:17.662Z,98725.40
2018-01-22T04:33:46.370Z,98736.70
2018-01-22T04:36:14.887Z,98729.52
2018-01-22T04:38:43.367Z,98746.48
2018-01-22T04:41:11.876Z,98746.48
2018-01-22T04:43:40.364Z,98749.44
2018-01-22T04:46:08.851Z,98741.66
2018-01-22T04:48:37.567Z,98748.19
2018-01-22T04:51:06.046Z,98753.58
2018-01-22T04:53:34.542Z,98759.81
2018-01-22T04:56:04.051Z,98760.61
2018-01-22T04:58:33.287Z,98764.41
2018-01-22T05:01:01.831Z,98772.11
2018-01-22T05:03:31.444Z,98768.02
2018-01-22T05:06:00.751Z,98781.67
2018-01-22T05:08:29.290Z,98789.47
2018-01-22T05:10:57.983Z,98770.73
2018-01-22T05:13:26.495Z,98786.50
2018-01-22T05:15:55.778Z,98791.70
2018-01-22T05:18:25.282Z,98796.56
2018-01-22T05:20:54.544Z,98785.87
2018-01-22T05:23:23.023Z,98793.91
2018-01-22T05:25:51.831Z,98795.40
2018-01-22T05:28:20.400Z,98797.47
2018-01-22T05:30:49.750Z,98799.19
2018-01-22T05:33:19.047Z,98812.59
2018-01-22T05:35:48.386Z,98801.50
2018-01-22T05:38:16.911Z,98798.17
2018-01-22T05:40:45.530Z,98799.49
2018-01-22T05:43:14.072Z,98805.55
2018-01-22T05:45:42.619Z,98791.91
2018-01-22T05:48:11.231Z,98810.63
2018-01-22T05:50:39.771Z,98804.44
2018-01-22T05:53:08.251Z,98809.02
2018-01-22T05:55:36.804Z,98806.20
2018-01-22T05:58:06.079Z,98804.11
2018-01-22T06:00:34.594Z,98800.00
2018-01-22T06:03:04.082Z,98801.38
2018-01-22T06:05:33.334Z,98814.28
2018-01-22T06:08:01.807Z,98808.72
2018-01-22T06:10:30.718Z,98810.07
2018-01-22T06:12:59.195Z,98806.11
2018-01-22T06:15:27.752Z,98812.13
2018-01-22T06:17:56.320Z,98805.95
2018-01-22T06:20:25.566Z,98804.20
2018-01-22T06:22:54.047Z,98805.02
2018-01-22T06:25:22.632Z,98806.36
2018-01-22T06:27:51.209Z,98811.11
2018-01-22T06:30:19.699Z,98811.65
2018-01-22T06:32:48.481Z,98823.70
2018-01-22T06:35:16.961Z,98812.04
2018-01-22T06:37:45.442Z,98819.89
2018-01-22T06:40:14.006Z,98821.77
2018-01-22T06:42:42.560Z,98814.80
2018-01-22T06:45:11.861Z,98814.96
2018-01-22T06:47:41.211Z,98816.08
2018-01-22T06:50:15.404Z,98821.94
2018-01-22T06:52:44.014Z,98832.95
2018-01-22T06:55:12.547Z,98832.70
2018-01-22T06:57:41.855Z,98835.73
2018-01-22T07:00:11.171Z,98839.50
2018-01-22T07:02:39.659Z,98838.42
2018-01-22T07:05:08.223Z,98835.20
2018-01-22T07:07:36.763Z,98840.55
2018-01-22T07:10:05.243Z,98846.35
2018-01-22T07:12:34.004Z,98840.22
2018-01-22T07:15:02.487Z,98845.47
2018-01-22T07:17:30.966Z,98845.61
2018-01-22T07:19:59.788Z,98842.69
2018-01-22T07:22:28.271Z,98862.92
2018-01-22T07:24:56.821Z,98853.39
2018-01-22T07:27:25.685Z,98846.20
2018-01-22T07:29:54.174Z,98847.66
2018-01-22T07:32:22.687Z,98849.73
2018-01-22T07:34:51.247Z,98853.72
2018-01-22T07:37:19.727Z,98861.94
2018-01-22T07:39:48.215Z,98853.47
2018-01-22T07:42:17.215Z,98863.06
2018-01-22T07:44:45.758Z,98860.40
2018-01-22T07:47:14.243Z,98864.55
2018-01-22T07:49:42.768Z,98866.66
2018-01-22T07:52:11.244Z,98853.90
2018-01-22T07:54:39.732Z,98866.78
2018-01-22T07:57:08.303Z,98875.89
2018-01-22T07:59:36.847Z,98877.76
2018-01-22T08:02:06.098Z,98872.59
2018-01-22T08:04:34.622Z,98884.08
2018-01-22T08:07:04.055Z,98884.70
2018-01-22T08:09:32.553Z,98881.55
2018-01-22T08:12:01.275Z,98888.09
2018-01-22T08:14:29.753Z,98886.22
2018-01-22T08:16:58.240Z,98891.20
2018-01-22T08:19:27.021Z,98891.81
2018-01-22T08:21:55.671Z,98885.19
2018-01-22T08:24:24.374Z,98890.05
2018-01-22T08:26:53.347Z,98880.98
2018-01-22T08:29:21.832Z,98884.62
2018-01-22T08:31:50.311Z,98891.20
2018-01-22T08:34:19.035Z,98892.09
2018-01-22T08:36:47.646Z,98896.09
2018-01-22T08:39:16.139Z,98900.17
2018-01-22T08:41:44.677Z,98905.72
2018-01-22T08:44:13.233Z,98903.11
2018-01-22T08:46:41.763Z,98908.20
2018-01-22T08:49:11.374Z,98907.80
2018-01-22T08:51:40.836Z,98906.02
2018-01-22T08:54:09.320Z,98897.94
2018-01-22T08:56:38.052Z,98906.01
2018-01-22T08:59:06.749Z,98908.66
2018-01-22T09:01:35.250Z,98913.34
2018-01-22T09:04:03.827Z,98913.30
2018-01-22T09:06:32.435Z,98906.25
2018-01-22T09:09:00.921Z,98906.70
2018-01-22T09:11:29.906Z,98911.41
2018-01-22T09:13:58.659Z,98908.83
2018-01-22T09:16:27.147Z,98911.80
2018-01-22T09:18:55.707Z,98914.89
2018-01-22T09:21:24.312Z,98912.46
2018-01-22T09:23:52.890Z,98913.58
2018-01-22T09:26:21.682Z,98909.98
2018-01-22T09:28:50.387Z,98911.05
2018-01-22T09:31:18.896Z,98915.71
2018-01-22T09:33:48.409Z,98911.23
2018-01-22T09:36:16.901Z,98911.37
2018-01-22T09:38:45.392Z,98915.40
2018-01-22T09:41:13.922Z,98924.53
2018-01-22T09:43:42.415Z,98923.32
2018-01-22T09:46:11.882Z,98923.76
2018-01-22T09:48:40.441Z,98925.08
2018-01-22T09:51:09.044Z,98914.47
2018-01-22T09:53:37.607Z,98921.28
2018-01-22T09:56:07.177Z,98920.44
2018-01-22T09:58:36.836Z,98917.44
2018-01-22T10:01:05.315Z,98914.59
2018-01-22T10:03:33.982Z,98921.26
2018-01-22T10:06:02.849Z,98917.01
2018-01-22T10:08:32.120Z,98926.59
2018-01-22T10:11:00.655Z,98917.16
2018-01-22T10:13:29.151Z,98912.67
2018-01-22T10:15:57.748Z,98922.84
2018-01-22T10:18:26.356Z,98930.38
2018-01-22T10:20:54.855Z,98926.36
2018-01-22T10:23:24.321Z,98936.33
2018-01-22T10:25:53.313Z,98928.19
2018-01-22T10:28:21.799Z,98941.02
2018-01-22T10:30:50.407Z,98949.33
2018-01-22T10:33:19.543Z,98943.43
2018-01-22T10:35:48.028Z,98947.16
2018-01-22T10:38:16.853Z,98943.06
2018-01-22T10:40:45.559Z,98943.69
2018-01-22T10:43:14.263Z,98944.10
2018-01-22T10:45:44.331Z,98950.25
2018-01-22T10:48:12.863Z,98960.38
2018-01-22T10:50:42.323Z,98951.67
2018-01-22T10:53:10.836Z,98951.16
2018-01-22T10:55:40.342Z,98960.33
2018-01-22T10:58:08.831Z,98952.15
2018-01-22T11:00:38.089Z,98956.23
2018-01-22T11:03:06.795Z,98952.91
2018-01-22T11:05:35.350Z,98960.38
2018-01-22T11:08:03.839Z,98954.70
2018-01-22T11:10:32.378Z,98961.91
2018-01-22T11:13:00.886Z,98951.38
2018-01-22T11:15:35.373Z,98948.64
2018-01-22T11:18:04.660Z,98955.13
2018-01-22T11:20:33.148Z,98956.94
2018-01-22T11:23:02.715Z,98959.06
2018-01-22T11:25:31.211Z,98955.36
2018-01-22T11:27:59.699Z,98957.47
2018-01-22T11:30:28.255Z,98942.83
2018-01-22T11:32:56.947Z,98956.89
2018-01-22T11:35:25.438Z,98963.09
2018-01-22T11:37:54.779Z,98957.50
2018-01-22T11:40:23.332Z,98952.46
2018-01-22T11:42:52.892Z,98960.41
2018-01-22T11:45:21.435Z,98957.02
2018-01-22T11:47:49.927Z,98963.45
2018-01-22T11:50:18.482Z,98972.11
2018-01-22T11:52:47.162Z,98969.35
2018-01-22T11:55:15.954Z,98963.30
2018-01-22T11:57:44.441Z,98977.52
2018-01-22T12:00:13.326Z,98966.69
2018-01-22T12:02:41.839Z,98960.41
2018-01-22T12:05:10.471Z,98967.72
2018-01-22T12:07:39.987Z,98969.84
2018-01-22T12:10:08.553Z,98966.05
2018-01-22T12:12:37.038Z,98971.95
2018-01-22T12:15:05.675Z,98975.55
2018-01-22T12:17:34.230Z,98973.42
2018-01-22T12:20:02.731Z,98975.10
2018-01-22T12:22:31.428Z,98981.06
2018-01-22T12:24:59.927Z,98981.47
2018-01-22T12:27:29.281Z,98983.16
2018-01-22T12:29:58.652Z,98990.45
2018-01-22T12:32:27.202Z,98987.56
2018-01-22T12:34:55.696Z,98998.78
2018-01-22T12:37:24.445Z,99003.63
2018-01-22T12:39:52.955Z,99001.69
2018-01-22T12:42:22.268Z,99000.78
2018-01-22T12:44:51.573Z,99017.45
2018-01-22T12:47:20.072Z,99019.30
2018-01-22T12:49:48.576Z,99029.79
2018-01-22T12:52:17.327Z,99034.44
2018-01-22T12:54:46.797Z,99032.63
2018-01-22T12:57:15.961Z,99033.90
2018-01-22T12:59:45.095Z,99043.39
2018-01-22T13:02:13.775Z,99037.42
2018-01-22T13:04:42.344Z,99049.77
2018-01-22T13:07:11.067Z,99053.80
2018-01-22T13:09:39.584Z,99065.92
2018-01-22T13:12:08.269Z,99067.14
2018-01-22T13:14:37.434Z,99069.01
2018-01-22T13:17:06.048Z,99067.81
2018-01-22T13:19:34.733Z,99080.06
2018-01-22T13:22:03.304Z,99084.45
2018-01-22T13:24:31.805Z,99092.88
2018-01-22T13:27:00.295Z,99097.51
2018-01-22T13:29:29.251Z,99101.02
2018-01-22T13:31:57.761Z,99103.14
2018-01-22T13:34:27.033Z,99103.88
2018-01-22T13:36:55.756Z,99102.00
2018-01-22T13:39:25.036Z,99100.85
2018-01-22T13:41:53.940Z,99108.72
2018-01-22T13:44:22.799Z,99106.65
2018-01-22T13:46:51.291Z,99117.97
2018-01-22T13:49:19.788Z,99113.64
2018-01-22T13:51:49.255Z,99124.14
2018-01-22T13:54:17.756Z,99127.11
2018-01-22T13:56:46.411Z,99126.73
2018-01-22T13:59:15.609Z,99138.00
2018-01-22T14:01:44.147Z,99145.52
2018-01-22T14:04:13.407Z,99143.28
2018-01-22T14:06:43.658Z,99151.31
2018-01-22T14:09:12.351Z,99153.72
2018-01-22T14:11:41.619Z,99158.98
2018-01-22T14:14:10.606Z,99168.32
2018-01-22T14:16:39.109Z,99174.70
2018-01-22T14:19:07.705Z,99176.44
2018-01-22T14:21:37.763Z,99177.92
2018-01-22T14:24:06.437Z,99180.17
2018-01-22T14:26:35.699Z,99182.03
2018-01-22T14:29:05.318Z,99194.88
2018-01-22T14:31:34.763Z,99190.95
2018-01-22T14:34:03.546Z,99198.48
2018-01-22T14:36:32.283Z,99206.39
2018-01-22T14:39:00.861Z,99204.53
2018-01-22T14:41:29.559Z,99209.13
2018-01-22T14:43:58.144Z,99213.34
2018-01-22T14:46:26.635Z,99217.43
2018-01-22T14:48:55.155Z,99219.64
2018-01-22T14:51:23.946Z,99216.99
2018-01-22T14:53:53.219Z,99227.80
2018-01-22T14:56:22.483Z,99230.20
2018-01-22T14:58:51.157Z,99235.59
2018-01-22T15:01:19.822Z,99241.30
2018-01-22T15:03:48.324Z,99239.45
2018-01-22T15:06:16.871Z,99245.42
2018-01-22T15:08:45.380Z,99252.88
2018-01-22T15:11:13.872Z,99259.37
2018-01-22T15:13:43.199Z,99266.74
2018-01-22T15:16:11.695Z,99280.84
2018-01-22T15:18:40.183Z,99290.05
2018-01-22T15:21:08.754Z,99293.09
2018-01-22T15:23:37.481Z,99300.20
2018-01-22T15:26:06.652Z,99302.45
2018-01-22T15:28:35.503Z,99307.96
2018-01-22T15:31:04.760Z,99321.75
2018-01-22T15:33:33.283Z,99317.98
2018-01-22T15:36:02.888Z,99321.20
2018-01-22T15:38:32.314Z,99330.05
2018-01-22T15:41:01.599Z,99338.09
2018-01-22T15:43:31.131Z,99344.55
2018-01-22T15:45:59.627Z,99346.52
2018-01-22T15:48:28.150Z,99352.52
2018-01-22T15:50:57.467Z,99353.61
2018-01-22T15:53:26.753Z,99361.58
2018-01-22T15:55:56.125Z,99366.89
2018-01-22T15:58:24.923Z,99372.40
2018-01-22T16:00:53.419Z,99378.27
2018-01-22T16:03:22.085Z,99382.72
2018-01-22T16:05:50.823Z,99377.61
2018-01-22T16:08:20.078Z,99389.66
2018-01-22T16:10:48.638Z,99395.80
2018-01-22T16:13:17.655Z,99401.26
2018-01-22T16:15:46.146Z,99404.69
2018-01-22T16:18:15.359Z,99412.05
2018-01-22T16:20:44.685Z,99417.58
2018-01-22T16:23:13.364Z,99420.99
2018-01-22T16:25:42.616Z,99435.42
2018-01-22T16:28:11.469Z,99435.03
2018-01-22T16:30:40.250Z,99439.83
2018-01-22T16:33:08.935Z,99447.85
2018-01-22T16:35:37.931Z,99447.80
2018-01-22T16:38:06.433Z,99447.21
2018-01-22T16:40:34.997Z,99457.11
2018-01-22T16:43:03.552Z,99460.17
2018-01-22T16:45:32.057Z,99469.86
2018-01-22T16:48:00.554Z,99477.15
2018-01-22T16:50:29.115Z,99476.05
2018-01-22T16:52:57.688Z,99474.87
2018-01-22T16:55:26.589Z,99483.72
2018-01-22T16:57:55.323Z,99495.95
2018-01-22T17:00:24.574Z,99502.78
2018-01-22T17:02:53.213Z,99509.31
2018-01-22T17:05:22.711Z,99513.39
2018-01-22T17:07:51.990Z,99519.79
2018-01-22T17:10:20.552Z,99521.87
2018-01-22T17:12:49.220Z,99523.88
2018-01-22T17:15:17.834Z,99532.45
2018-01-22T17:17:46.471Z,99537.22
2018-01-22T17:20:15.260Z,99542.58
2018-01-22T17:22:43.994Z,99553.47
2018-01-22T17:25:13.439Z,99549.08
2018-01-22T17:27:42.743Z,99558.44
2018-01-22T17:30:11.235Z,99565.70
2018-01-22T17:32:39.736Z,99569.08
2018-01-22T17:35:08.896Z,99571.16
2018-01-22T17:37:38.151Z,99574.19
2018-01-22T17:40:06.942Z,99578.72
2018-01-22T17:42:36.136Z,99581.61
2018-01-22T17:45:05.278Z,99588.82
2018-01-22T17:47:34.548Z,99593.00
2018-01-22T17:50:03.135Z,99597.12
2018-01-22T17:52:31.811Z,99601.41
2018-01-22T17:55:00.533Z,99613.58
2018-01-22T17:57:30.255Z,99614.53
2018-01-22T17:59:58.986Z,99621.27
2018-01-22T18:02:27.678Z,99627.37
2018-01-22T18:04:56.412Z,99630.77
2018-01-22T18:07:24.904Z,99637.25
2018-01-22T18:09:53.401Z,99638.55
2018-01-22T18:12:22.371Z,99644.69
2018-01-22T18:14:50.893Z,99644.06
2018-01-22T18:17:19.420Z,99642.11
2018-01-22T18:19:48.931Z,99649.45
2018-01-22T18:22:18.191Z,99656.75
2018-01-22T18:24:46.975Z,99653.78
2018-01-22T18:27:15.605Z,99654.66
2018-01-22T18:29:44.859Z,99654.41
2018-01-22T18:32:13.430Z,99656.48
2018-01-22T18:34:42.530Z,99662.21
2018-01-22T18:37:11.119Z,99663.29
2018-01-22T18:39:39.611Z,99661.68
2018-01-22T18:42:08.151Z,99663.08
2018-01-22T18:44:36.728Z,99663.61
2018-01-22T18:47:05.455Z,99663.45
2018-01-22T18:49:34.099Z,99671.70
2018-01-22T18:52:02.775Z,99671.86
2018-01-22T18:54:31.511Z,99675.24
2018-01-22T18:57:00.231Z,99679.78
2018-01-22T18:59:29.484Z,99676.27
2018-01-22T19:01:58.031Z,99677.47
2018-01-22T19:04:27.516Z,99678.41
2018-01-22T19:06:56.882Z,99680.41
2018-01-22T19:09:25.375Z,99686.63
2018-01-22T19:11:54.919Z,99688.70
2018-01-22T19:14:24.183Z,99692.97
2018-01-22T19:16:52.751Z,99705.86
2018-01-22T19:19:22.211Z,99710.55
2018-01-22T19:21:50.711Z,99707.11
2018-01-22T19:24:19.294Z,99712.16
2018-01-22T19:26:48.079Z,99716.48
2018-01-22T19:29:17.564Z,99715.31
2018-01-22T19:31:46.077Z,99725.36
2018-01-22T19:34:15.531Z,99722.32
2018-01-22T19:36:44.026Z,99715.38
2018-01-22T19:39:12.594Z,99712.13
2018-01-22T19:41:41.400Z,99713.58
2018-01-22T19:44:09.889Z,99721.80
2018-01-22T19:46:38.675Z,99725.19
2018-01-22T19:49:07.458Z,99733.13
2018-01-22T19:51:35.952Z,99730.91
2018-01-22T19:54:05.236Z,99737.14
2018-01-22T19:56:33.821Z,99736.42
2018-01-22T19:59:02.316Z,99751.77
2018-01-22T20:01:30.816Z,99741.70
2018-01-22T20:03:59.359Z,99746.84
2018-01-22T20:06:27.872Z,99743.66
2018-01-22T20:08:56.587Z,99749.86
2018-01-22T20:11:25.235Z,99745.07
2018-01-22T20:13:53.728Z,99746.41
2018-01-22T20:16:22.267Z,99755.96
2018-01-22T20:18:50.883Z,99749.83
2018-01-22T20:21:19.396Z,99760.45
2018-01-22T20:23:48.027Z,99759.07
2018-01-22T20:26:16.567Z,99763.68
2018-01-22T20:28:45.079Z,99757.06
2018-01-22T20:31:13.874Z,99767.70
2018-01-22T20:33:42.901Z,99759.67
2018-01-22T20:36:11.394Z,99769.50
2018-01-22T20:38:40.853Z,99765.65
2018-01-22T20:41:09.649Z,99771.14
2018-01-22T20:43:38.139Z,99776.36
2018-01-22T20:46:06.639Z,99778.78
2018-01-22T20:48:35.446Z,99781.34
2018-01-22T20:51:04.785Z,99780.52
2018-01-22T20:53:33.670Z,99784.40
2018-01-22T20:56:03.201Z,99784.12
2018-01-22T20:58:31.724Z,99794.69
2018-01-22T21:01:01.361Z,99793.89
2018-01-22T21:03:30.287Z,99786.75
2018-01-22T21:05:58.765Z,99787.43
2018-01-22T21:08:27.747Z,99796.63
2018-01-22T21:10:56.547Z,99796.70
2018-01-22T21:13:25.043Z,99796.95
2018-01-22T21:15:53.552Z,99801.29
2018-01-22T21:18:22.858Z,99804.49
2018-01-22T21:20:52.278Z,99805.03
2018-01-22T21:23:21.917Z,99808.84
2018-01-22T21:25:51.010Z,99806.56
2018-01-22T21:28:19.656Z,99811.83
2018-01-22T21:30:48.290Z,99817.16
2018-01-22T21:33:17.018Z,99817.64
2018-01-22T21:35:46.323Z,99814.63
2018-01-22T21:38:15.053Z,99806.66
2018-01-22T21:40:43.595Z,99801.83
2018-01-22T21:43:12.110Z,99811.97
2018-01-22T21:45:40.607Z,99809.22
2018-01-22T21:48:09.156Z,99803.80
2018-01-22T21:50:37.816Z,99799.79
2018-01-22T21:53:07.068Z,99808.73
2018-01-22T21:55:35.647Z,99809.30
2018-01-22T21:58:04.341Z,99811.72
2018-01-22T22:00:32.883Z,99810.48
2018-01-22T22:03:01.701Z,99808.22
2018-01-22T22:05:30.196Z,99813.95
2018-01-22T22:07:58.841Z,99823.14
2018-01-22T22:10:27.408Z,99826.81
2018-01-22T22:12:56.724Z,99835.26
2018-01-22T22:15:25.245Z,99834.86
2018-01-22T22:17:54.028Z,99837.47
2018-01-22T22:20:22.517Z,99843.69
2018-01-22T22:22:51.247Z,99841.87
2018-01-22T22:25:20.831Z,99842.97
2018-01-22T22:27:49.360Z,99846.66
2018-01-22T22:30:17.932Z,99851.69
2018-01-22T22:32:46.968Z,99855.14
2018-01-22T22:35:15.651Z,99856.69
2018-01-22T22:37:44.222Z,99849.56
2018-01-22T22:40:12.958Z,99856.34
2018-01-22T22:42:42.216Z,99855.28
2018-01-22T22:45:10.713Z,99856.73
2018-01-22T22:47:39.675Z,99863.55
2018-01-22T22:50:08.379Z,99868.28
2018-01-22T22:52:36.863Z,99873.98
2018-01-22T22:55:05.593Z,99875.92
2018-01-22T22:57:35.020Z,99876.83
2018-01-22T23:00:04.070Z,99885.75
2018-01-22T23:02:35.088Z,99887.62
2018-01-22T23:05:03.874Z,99887.24
2018-01-22T23:07:32.361Z,99885.05
2018-01-22T23:10:01.284Z,99888.46
2018-01-22T23:12:30.550Z,99891.95
2018-01-22T23:14:59.040Z,99889.59
2018-01-22T23:17:28.129Z,99890.37
2018-01-22T23:19:56.619Z,99893.79
2018-01-22T23:22:25.114Z,99896.69
2018-01-22T23:24:55.452Z,99896.17
2018-01-22T23:27:24.911Z,99899.73
2018-01-22T23:29:53.496Z,99903.98
2018-01-22T23:32:22.224Z,99904.77
2018-01-22T23:34:51.011Z,99907.30
2018-01-22T23:37:20.285Z,99902.64
2018-01-22T23:39:48.848Z,99899.34
2018-01-22T23:42:17.756Z,99899.39
2018-01-22T23:44:46.201Z,99903.23
2018-01-22T23:47:14.693Z,99901.92
2018-01-22T23:49:43.130Z,99907.45
2018-01-22T23:52:12.571Z,99906.75
2018-01-22T23:54:41.267Z,99912.24
2018-01-22T23:57:09.691Z,99905.34
2018-01-22T23:59:38.476Z,99913.80
